createdAt,value
2022-08-25T00:01:23.789Z,8.27
2022-08-25T00:03:55.161Z,9.80
2022-08-25T00:06:23.828Z,10.55
2022-08-25T00:08:51.164Z,10.27
2022-08-25T00:11:23.915Z,11.82
2022-08-25T00:13:55.916Z,9.80
2022-08-25T00:16:23.303Z,9.55
2022-08-25T00:18:56.738Z,10.63
2022-08-25T00:21:23.644Z,11.32
2022-08-25T00:23:50.707Z,9.32
2022-08-25T00:26:17.977Z,11.70
2022-08-25T00:28:45.095Z,10.43
2022-08-25T00:31:14.645Z,10.60
2022-08-25T00:33:43.095Z,11.20
2022-08-25T00:36:12.253Z,9.95
2022-08-25T00:38:40.592Z,10.20
2022-08-25T00:41:08.289Z,9.90
2022-08-25T00:43:46.601Z,10.73
2022-08-25T00:46:18.649Z,10.65
2022-08-25T00:48:49.299Z,8.90
2022-08-25T00:51:36.881Z,15.70
2022-08-25T00:54:05.486Z,9.55
2022-08-25T00:56:32.268Z,9.63
2022-08-25T00:58:59.903Z,10.30
2022-08-25T01:01:27.159Z,10.80
2022-08-25T01:03:54.111Z,10.13
2022-08-25T01:06:21.386Z,10.60
2022-08-25T01:08:48.176Z,9.88
2022-08-25T01:11:14.814Z,11.98
2022-08-25T01:13:45.433Z,15.40
2022-08-25T01:16:14.898Z,10.30
2022-08-25T01:18:44.552Z,12.02
2022-08-25T01:21:11.322Z,9.55
2022-08-25T01:23:38.666Z,11.25
2022-08-25T01:26:11.256Z,11.27
2022-08-25T01:28:38.550Z,14.60
2022-08-25T01:31:05.339Z,10.45
2022-08-25T01:33:51.010Z,11.88
2022-08-25T01:36:22.376Z,10.68
2022-08-25T01:38:49.434Z,12.50
2022-08-25T01:41:48.725Z,11.80
2022-08-25T01:44:18.511Z,9.65
2022-08-25T01:46:45.225Z,15.18
2022-08-25T01:49:12.114Z,12.13
2022-08-25T01:51:44.756Z,12.50
2022-08-25T01:54:11.347Z,11.10
2022-08-25T01:56:38.755Z,10.05
2022-08-25T01:59:05.467Z,10.13
2022-08-25T02:01:32.522Z,10.68
2022-08-25T02:03:59.619Z,14.77
2022-08-25T02:06:33.199Z,12.23
2022-08-25T02:09:07.760Z,12.50
2022-08-25T02:11:37.048Z,13.48
2022-08-25T02:14:04.319Z,13.38
2022-08-25T02:16:33.283Z,12.63
2022-08-25T02:19:00.936Z,14.85
2022-08-25T02:21:28.226Z,11.55
2022-08-25T02:23:55.182Z,11.27
2022-08-25T02:26:22.649Z,13.45
2022-08-25T02:28:51.116Z,14.45
2022-08-25T02:31:20.515Z,12.82
2022-08-25T02:33:47.113Z,13.50
2022-08-25T02:36:13.791Z,16.58
2022-08-25T02:38:40.723Z,12.57
2022-08-25T02:41:17.961Z,14.73
2022-08-25T02:43:45.318Z,13.07
2022-08-25T02:46:12.331Z,12.55
2022-08-25T02:48:39.912Z,14.52
2022-08-25T02:51:08.775Z,13.80
2022-08-25T02:53:38.252Z,12.90
2022-08-25T02:56:05.285Z,14.88
2022-08-25T02:58:31.931Z,12.88
2022-08-25T03:00:58.577Z,13.43
2022-08-25T03:03:25.306Z,12.90
2022-08-25T03:05:52.079Z,15.02
2022-08-25T03:08:18.747Z,13.30
2022-08-25T03:10:45.366Z,13.02
2022-08-25T03:13:14.148Z,13.50
2022-08-25T03:15:42.501Z,14.70
2022-08-25T03:18:09.341Z,14.70
2022-08-25T03:20:36.042Z,11.77
2022-08-25T03:23:04.141Z,11.15
2022-08-25T03:25:49.094Z,11.68
2022-08-25T03:28:15.917Z,14.10
2022-08-25T03:30:42.957Z,13.98
2022-08-25T03:33:10.003Z,15.68
2022-08-25T03:35:36.804Z,13.35
2022-08-25T03:38:04.004Z,15.32
2022-08-25T03:40:31.181Z,16.00
2022-08-25T03:42:58.038Z,13.25
2022-08-25T03:45:25.528Z,16.00
2022-08-25T03:47:53.495Z,14.35
2022-08-25T03:50:22.446Z,14.15
2022-08-25T03:52:56.987Z,15.30
2022-08-25T03:55:25.664Z,17.52
2022-08-25T03:57:54.570Z,14.70
2022-08-25T04:00:23.140Z,18.27
2022-08-25T04:02:49.922Z,16.80
2022-08-25T04:05:16.706Z,16.02
2022-08-25T04:07:43.611Z,15.70
2022-08-25T04:10:10.930Z,14.93
2022-08-25T04:12:38.502Z,15.50
2022-08-25T04:15:07.470Z,14.95
2022-08-25T04:17:38.849Z,15.15
2022-08-25T04:20:08.365Z,14.23
2022-08-25T04:22:36.840Z,15.43
2022-08-25T04:25:05.947Z,15.88
2022-08-25T04:27:32.550Z,19.38
2022-08-25T04:29:59.162Z,15.07
2022-08-25T04:32:25.790Z,15.63
2022-08-25T04:34:52.556Z,14.68
2022-08-25T04:37:19.182Z,18.55
2022-08-25T04:39:45.932Z,19.65
2022-08-25T04:42:12.583Z,17.60
2022-08-25T04:44:39.206Z,19.40
2022-08-25T04:47:06.032Z,15.27
2022-08-25T04:49:32.847Z,15.65
2022-08-25T04:51:59.507Z,15.52
2022-08-25T04:54:28.071Z,14.55
2022-08-25T04:56:58.101Z,15.88
2022-08-25T04:59:27.330Z,15.38
2022-08-25T05:01:58.687Z,16.10
2022-08-25T05:04:28.336Z,21.23
2022-08-25T05:06:56.725Z,16.20
2022-08-25T05:09:24.118Z,13.90
2022-08-25T05:11:52.427Z,14.95
2022-08-25T05:14:25.688Z,15.32
2022-08-25T05:16:54.772Z,15.23
2022-08-25T05:19:23.586Z,16.63
2022-08-25T05:21:50.382Z,16.60
2022-08-25T05:24:16.986Z,15.88
2022-08-25T05:26:43.861Z,14.30
2022-08-25T05:29:11.767Z,16.85
2022-08-25T05:31:43.124Z,15.57
2022-08-25T05:34:12.114Z,15.80
2022-08-25T05:36:43.174Z,14.52
2022-08-25T05:41:37.377Z,15.13
2022-08-25T05:44:04.353Z,13.30
2022-08-25T05:46:31.792Z,16.98
2022-08-25T05:48:59.025Z,16.25
2022-08-25T05:51:26.315Z,17.95
2022-08-25T05:53:53.122Z,14.82
2022-08-25T05:56:20.022Z,19.45
2022-08-25T05:58:46.903Z,16.20
2022-08-25T06:01:50.024Z,17.27
2022-08-25T06:04:18.024Z,17.48
2022-08-25T06:06:44.694Z,17.35
2022-08-25T06:09:11.605Z,15.48
2022-08-25T06:11:40.062Z,17.17
2022-08-25T06:14:08.771Z,17.20
2022-08-25T06:16:35.485Z,21.52
2022-08-25T06:19:02.191Z,15.63
2022-08-25T06:21:29.197Z,15.43
2022-08-25T06:23:55.850Z,20.50
2022-08-25T06:26:23.436Z,19.45
2022-08-25T06:28:51.761Z,16.67
2022-08-25T06:31:19.696Z,18.95
2022-08-25T06:33:46.790Z,18.20
2022-08-25T06:36:13.741Z,19.30
2022-08-25T06:38:40.321Z,17.70
2022-08-25T06:41:10.575Z,18.80
2022-08-25T06:43:45.033Z,20.63
2022-08-25T06:46:19.260Z,18.65
2022-08-25T06:48:46.047Z,21.23
2022-08-25T06:51:15.171Z,16.30
2022-08-25T06:53:43.432Z,19.60
2022-08-25T06:56:11.162Z,19.98
2022-08-25T06:58:38.855Z,19.67
2022-08-25T07:01:19.792Z,17.92
2022-08-25T07:03:47.524Z,17.27
2022-08-25T07:06:16.585Z,21.15
2022-08-25T07:08:46.442Z,18.25
2022-08-25T07:11:17.379Z,17.42
2022-08-25T07:16:11.674Z,18.95
2022-08-25T07:18:38.406Z,19.25
2022-08-25T07:21:05.423Z,16.50
2022-08-25T07:23:36.116Z,18.42
2022-08-25T07:26:36.193Z,17.85
2022-08-25T07:29:04.217Z,17.65
2022-08-25T07:31:32.428Z,18.92
2022-08-25T07:34:17.734Z,17.27
2022-08-25T07:36:44.478Z,17.63
2022-08-25T07:39:11.519Z,17.50
2022-08-25T07:41:40.817Z,19.65
2022-08-25T07:44:08.393Z,15.75
2022-08-25T07:46:35.085Z,19.25
2022-08-25T07:49:02.051Z,16.65
2022-08-25T07:51:28.866Z,14.95
2022-08-25T07:53:55.605Z,16.50
2022-08-25T07:56:22.274Z,17.60
2022-08-25T07:58:48.874Z,16.30
2022-08-25T08:01:21.288Z,15.30
2022-08-25T08:03:50.577Z,16.33
2022-08-25T08:06:20.847Z,17.85
2022-08-25T08:08:49.387Z,12.88
2022-08-25T08:11:28.707Z,17.88
2022-08-25T08:13:57.625Z,14.60
2022-08-25T08:16:26.864Z,13.70
2022-08-25T08:18:53.928Z,12.25
2022-08-25T08:21:24.459Z,15.60
2022-08-25T08:23:56.678Z,12.02
2022-08-25T08:26:36.416Z,14.93
2022-08-25T08:29:08.839Z,13.40
2022-08-25T08:31:36.596Z,14.15
2022-08-25T08:34:03.726Z,12.90
2022-08-25T08:36:30.320Z,13.20
2022-08-25T08:38:56.948Z,15.40
2022-08-25T08:42:16.950Z,17.92
2022-08-25T08:44:47.070Z,15.98
2022-08-25T08:47:17.132Z,26.30
2022-08-25T08:50:06.518Z,11.20
2022-08-25T08:52:41.251Z,14.43
2022-08-25T08:55:26.604Z,13.25
2022-08-25T08:57:56.813Z,11.13
2022-08-25T09:00:26.088Z,11.98
2022-08-25T09:02:54.694Z,12.48
2022-08-25T09:05:26.088Z,11.00
2022-08-25T09:08:03.191Z,13.63
2022-08-25T09:10:40.394Z,12.43
2022-08-25T09:13:38.691Z,10.93
2022-08-25T09:16:55.735Z,15.63
2022-08-25T09:20:02.130Z,11.52
2022-08-25T09:22:55.844Z,10.30
2022-08-25T09:25:48.589Z,13.10
2022-08-25T09:28:21.918Z,12.05
2022-08-25T09:31:16.923Z,11.63
2022-08-25T09:33:43.749Z,10.43
2022-08-25T09:36:10.916Z,11.80
2022-08-25T09:38:38.549Z,12.00
2022-08-25T09:41:05.728Z,13.85
2022-08-25T09:43:44.806Z,9.10
2022-08-25T09:46:29.021Z,11.73
2022-08-25T09:48:57.762Z,11.95
2022-08-25T09:51:38.323Z,11.35
2022-08-25T09:54:12.622Z,10.85
2022-08-25T09:57:01.998Z,8.77
2022-08-25T09:59:35.190Z,11.20
2022-08-25T10:02:05.922Z,9.27
2022-08-25T10:04:40.084Z,8.60
2022-08-25T10:07:28.428Z,10.18
2022-08-25T10:09:58.806Z,13.18
2022-08-25T10:12:51.491Z,11.38
2022-08-25T10:15:29.641Z,9.50
2022-08-25T10:18:19.941Z,10.40
2022-08-25T10:21:07.641Z,11.27
2022-08-25T10:23:37.321Z,9.18
2022-08-25T10:26:11.764Z,10.45
2022-08-25T10:28:54.553Z,8.38
2022-08-25T10:31:37.354Z,10.07
2022-08-25T10:34:37.179Z,8.55
2022-08-25T10:37:16.938Z,9.70
2022-08-25T10:39:55.409Z,12.52
2022-08-25T10:42:33.836Z,10.25
2022-08-25T10:45:28.443Z,9.75
2022-08-25T10:48:06.979Z,9.10
2022-08-25T10:50:40.054Z,7.65
2022-08-25T10:53:42.411Z,8.32
2022-08-25T10:56:26.363Z,8.32
2022-08-25T10:59:12.475Z,15.27
2022-08-25T11:01:53.856Z,7.25
2022-08-25T11:04:30.954Z,7.68
2022-08-25T11:07:10.554Z,8.73
2022-08-25T11:09:44.363Z,5.85
2022-08-25T11:12:38.652Z,7.35
2022-08-25T11:15:20.407Z,7.43
2022-08-25T11:17:53.748Z,10.18
2022-08-25T11:20:27.024Z,9.30
2022-08-25T11:23:08.840Z,6.63
2022-08-25T11:25:46.098Z,7.57
2022-08-25T11:28:14.712Z,7.68
2022-08-25T11:30:41.997Z,6.55
2022-08-25T11:33:13.975Z,8.05
2022-08-25T11:35:47.682Z,13.23
2022-08-25T11:38:17.775Z,7.95
2022-08-25T11:40:59.530Z,7.32
2022-08-25T11:43:56.334Z,7.45
2022-08-25T11:46:45.558Z,6.53
2022-08-25T11:49:44.339Z,8.10
2022-08-25T11:52:34.842Z,6.28
2022-08-25T11:55:12.086Z,7.53
2022-08-25T11:57:39.553Z,8.45
2022-08-25T12:00:08.587Z,12.20
2022-08-25T12:02:48.699Z,9.65
2022-08-25T12:05:15.312Z,10.32
2022-08-25T12:07:48.258Z,7.70
2022-08-25T12:10:19.586Z,16.08
2022-08-25T12:12:46.538Z,9.30
2022-08-25T12:15:53.639Z,9.05
2022-08-25T12:18:23.074Z,7.65
2022-08-25T12:20:58.521Z,9.45
2022-08-25T12:23:27.862Z,5.55
2022-08-25T12:25:57.015Z,9.68
2022-08-25T12:28:30.339Z,7.43
2022-08-25T12:31:12.065Z,7.82
2022-08-25T12:33:53.968Z,7.55
2022-08-25T12:36:31.512Z,6.60
2022-08-25T12:39:24.328Z,6.85
2022-08-25T12:41:58.270Z,5.65
2022-08-25T12:44:38.231Z,6.68
2022-08-25T12:47:28.063Z,6.28
2022-08-25T12:50:35.140Z,10.60
2022-08-25T12:53:12.263Z,9.27
2022-08-25T12:55:46.474Z,9.20
2022-08-25T12:58:13.096Z,10.88
2022-08-25T13:01:00.884Z,7.70
2022-08-25T13:04:06.219Z,13.75
2022-08-25T13:06:58.320Z,7.25
2022-08-25T13:09:50.703Z,10.65
2022-08-25T13:12:35.527Z,6.13
2022-08-25T13:15:02.805Z,8.57
2022-08-25T13:17:35.644Z,8.75
2022-08-25T13:20:30.536Z,6.82
2022-08-25T13:25:51.759Z,14.70
2022-08-25T13:28:30.084Z,9.98
2022-08-25T13:31:00.233Z,10.00
2022-08-25T13:33:27.815Z,7.13
2022-08-25T13:36:16.313Z,11.82
2022-08-25T13:38:46.792Z,7.53
2022-08-25T13:41:29.372Z,11.15
2022-08-25T13:44:01.083Z,7.97
2022-08-25T13:46:30.070Z,12.10
2022-08-25T13:49:06.599Z,7.45
2022-08-25T13:51:36.488Z,6.65
2022-08-25T13:54:07.190Z,8.95
2022-08-25T13:56:41.902Z,8.93
2022-08-25T13:59:40.779Z,6.88
2022-08-25T14:02:15.260Z,7.68
2022-08-25T14:04:50.667Z,6.43
2022-08-25T14:07:20.161Z,5.30
2022-08-25T14:09:57.489Z,5.05
2022-08-25T14:15:07.331Z,11.77
2022-08-25T14:17:39.197Z,8.85
2022-08-25T14:20:17.252Z,13.55
2022-08-25T14:22:44.332Z,12.30
2022-08-25T14:25:11.344Z,7.43
2022-08-25T14:28:05.721Z,11.75
2022-08-25T14:30:30.125Z,7.88
2022-08-25T14:32:57.026Z,9.07
2022-08-25T14:35:23.672Z,6.68
2022-08-25T14:37:50.543Z,7.13
2022-08-25T14:40:20.033Z,5.88
2022-08-25T14:42:47.602Z,5.82
2022-08-25T14:45:18.938Z,8.95
2022-08-25T14:47:49.722Z,14.57
2022-08-25T14:50:24.668Z,9.40
2022-08-25T14:52:52.164Z,9.95
2022-08-25T14:55:31.678Z,9.45
2022-08-25T14:57:59.811Z,10.13
2022-08-25T15:00:26.721Z,6.07
2022-08-25T15:02:54.890Z,6.50
2022-08-25T15:05:25.698Z,7.22
2022-08-25T15:08:12.461Z,6.00
2022-08-25T15:10:40.363Z,6.75
2022-08-25T15:13:07.325Z,5.90
2022-08-25T15:15:38.804Z,4.82
2022-08-25T15:18:19.787Z,8.50
2022-08-25T15:20:47.047Z,7.65
2022-08-25T15:23:18.628Z,7.57
2022-08-25T15:25:52.863Z,5.85
2022-08-25T15:28:21.907Z,7.07
2022-08-25T15:30:50.059Z,7.50
2022-08-25T15:33:17.769Z,5.88
2022-08-25T15:35:45.128Z,7.05
2022-08-25T15:38:12.483Z,9.93
2022-08-25T15:40:39.864Z,6.65
2022-08-25T15:43:07.093Z,9.70
2022-08-25T15:45:36.234Z,9.20
2022-08-25T15:48:04.383Z,7.63
2022-08-25T15:50:33.718Z,6.25
2022-08-25T15:53:00.583Z,5.90
2022-08-25T15:55:27.509Z,8.68
2022-08-25T15:57:55.491Z,5.65
2022-08-25T16:00:22.838Z,5.22
2022-08-25T16:02:49.975Z,7.85
2022-08-25T16:05:16.785Z,6.15
2022-08-25T16:07:45.948Z,9.18
2022-08-25T16:10:13.686Z,6.22
2022-08-25T16:12:42.716Z,6.57
2022-08-25T16:15:12.098Z,4.95
2022-08-25T16:17:40.736Z,5.65
2022-08-25T16:20:13.827Z,11.20
2022-08-25T16:22:41.209Z,7.70
2022-08-25T16:25:08.485Z,7.47
2022-08-25T16:27:38.578Z,7.60
2022-08-25T16:32:33.545Z,9.05
2022-08-25T16:35:00.719Z,7.63
2022-08-25T16:37:27.664Z,6.10
2022-08-25T16:39:55.417Z,6.60
2022-08-25T16:42:22.219Z,8.68
2022-08-25T16:44:48.841Z,5.55
2022-08-25T16:47:25.270Z,5.20
2022-08-25T16:49:54.326Z,5.40
2022-08-25T16:52:40.598Z,6.65
2022-08-25T16:55:14.359Z,6.47
2022-08-25T16:57:44.006Z,7.80
2022-08-25T17:00:13.840Z,4.95
2022-08-25T17:02:42.152Z,6.68
2022-08-25T17:05:11.396Z,6.18
2022-08-25T17:07:38.680Z,5.78
2022-08-25T17:10:06.694Z,5.78
2022-08-25T17:12:39.600Z,7.03
2022-08-25T17:15:07.513Z,7.75
2022-08-25T17:17:36.019Z,7.43
2022-08-25T17:20:04.820Z,8.50
2022-08-25T17:22:31.715Z,6.43
2022-08-25T17:25:00.704Z,9.40
2022-08-25T17:27:27.994Z,10.82
2022-08-25T17:29:55.824Z,6.95
2022-08-25T17:32:28.877Z,8.38
2022-08-25T17:34:58.095Z,8.32
2022-08-25T17:37:24.864Z,10.75
2022-08-25T17:39:57.429Z,11.05
2022-08-25T17:42:30.537Z,11.10
2022-08-25T17:44:57.989Z,11.18
2022-08-25T17:47:24.634Z,11.40
2022-08-25T17:49:51.216Z,9.90
2022-08-25T17:52:17.855Z,9.23
2022-08-25T17:54:48.137Z,12.15
2022-08-25T17:57:16.136Z,9.63
2022-08-25T17:59:42.938Z,8.65
2022-08-25T18:02:09.706Z,11.80
2022-08-25T18:04:39.063Z,12.00
2022-08-25T18:07:06.573Z,11.15
2022-08-25T18:09:33.233Z,11.38
2022-08-25T18:11:59.940Z,11.15
2022-08-25T18:14:26.782Z,9.68
2022-08-25T18:16:53.917Z,9.43
2022-08-25T18:19:21.205Z,9.95
2022-08-25T18:21:48.120Z,13.02
2022-08-25T18:24:14.687Z,10.70
2022-08-25T18:26:41.560Z,10.50
2022-08-25T18:29:12.075Z,12.63
2022-08-25T18:31:41.645Z,11.75
2022-08-25T18:34:11.023Z,13.65
2022-08-25T18:36:38.795Z,9.80
2022-08-25T18:39:24.729Z,11.27
2022-08-25T18:41:51.765Z,13.30
2022-08-25T18:44:18.413Z,9.15
2022-08-25T18:46:45.376Z,14.65
2022-08-25T18:49:12.767Z,11.85
2022-08-25T18:51:44.395Z,11.05
2022-08-25T18:54:22.410Z,14.75
2022-08-25T18:56:50.287Z,15.10
2022-08-25T18:59:16.892Z,12.95
2022-08-25T19:01:44.586Z,14.73
2022-08-25T19:04:13.514Z,12.48
2022-08-25T19:06:40.105Z,10.40
2022-08-25T19:09:10.835Z,16.67
2022-08-25T19:11:38.431Z,15.65
2022-08-25T19:14:08.081Z,13.90
2022-08-25T19:16:41.120Z,17.17
2022-08-25T19:19:11.561Z,18.88
2022-08-25T19:21:38.825Z,14.20
2022-08-25T19:24:07.020Z,16.95
2022-08-25T19:26:36.258Z,19.08
2022-08-25T19:29:08.964Z,14.60
2022-08-25T19:31:37.115Z,17.83
2022-08-25T19:34:09.003Z,16.17
2022-08-25T19:36:35.802Z,20.02
2022-08-25T19:39:04.747Z,15.73
2022-08-25T19:41:31.518Z,17.75
2022-08-25T19:43:59.451Z,14.10
2022-08-25T19:46:35.176Z,16.33
2022-08-25T19:49:09.149Z,14.18
2022-08-25T19:51:38.238Z,13.00
2022-08-25T19:54:05.936Z,14.05
2022-08-25T19:56:35.123Z,14.63
2022-08-25T19:59:03.814Z,13.57
2022-08-25T20:01:30.512Z,15.63
2022-08-25T20:03:57.146Z,18.17
2022-08-25T20:06:24.406Z,25.38
2022-08-25T20:08:58.907Z,14.15
2022-08-25T20:11:28.888Z,14.68
2022-08-25T20:13:58.184Z,17.20
2022-08-25T20:16:28.135Z,18.65
2022-08-25T20:18:55.013Z,17.20
2022-08-25T20:21:21.608Z,18.15
2022-08-25T20:24:07.287Z,14.10
2022-08-25T20:26:33.879Z,13.50
2022-08-25T20:29:00.544Z,15.85
2022-08-25T20:31:27.346Z,13.40
2022-08-25T20:33:58.507Z,15.35
2022-08-25T20:36:26.923Z,15.68
2022-08-25T20:38:53.502Z,20.55
2022-08-25T20:41:20.110Z,14.45
2022-08-25T20:43:46.744Z,15.13
2022-08-25T20:46:13.515Z,15.63
2022-08-25T20:48:40.185Z,12.75
2022-08-25T20:51:08.541Z,12.27
2022-08-25T20:53:36.627Z,16.13
2022-08-25T20:56:08.882Z,10.82
2022-08-25T20:58:37.598Z,13.38
2022-08-25T21:01:37.552Z,11.20
2022-08-25T21:04:06.076Z,14.15
2022-08-25T21:06:36.119Z,19.15
2022-08-25T21:09:07.595Z,13.70
2022-08-25T21:11:41.456Z,11.95
2022-08-25T21:14:08.080Z,10.55
2022-08-25T21:16:38.816Z,16.05
2022-08-25T21:21:38.185Z,15.88
2022-08-25T21:24:09.744Z,12.55
2022-08-25T21:26:37.614Z,10.73
2022-08-25T21:29:15.571Z,20.65
2022-08-25T21:31:42.594Z,13.27
2022-08-25T21:34:11.681Z,12.48
2022-08-25T21:36:39.531Z,13.77
2022-08-25T21:39:06.737Z,13.57
2022-08-25T21:41:35.276Z,12.25
2022-08-25T21:44:03.869Z,11.57
2022-08-25T21:46:32.960Z,11.48
2022-08-25T21:49:00.874Z,13.02
2022-08-25T21:51:44.559Z,11.23
2022-08-25T21:54:15.221Z,12.63
2022-08-25T21:57:02.642Z,12.43
2022-08-25T21:59:32.575Z,16.45
2022-08-25T22:02:02.059Z,15.32
2022-08-25T22:04:29.687Z,15.43
2022-08-25T22:06:58.081Z,14.40
2022-08-25T22:09:25.286Z,14.95
2022-08-25T22:11:54.736Z,13.07
2022-08-25T22:14:23.476Z,15.32
2022-08-25T22:16:52.013Z,15.48
2022-08-25T22:19:18.820Z,13.43
2022-08-25T22:21:45.468Z,13.52
2022-08-25T22:24:12.300Z,14.43
2022-08-25T22:26:39.828Z,12.05
2022-08-25T22:29:06.615Z,15.10
2022-08-25T22:31:35.662Z,13.75
2022-08-25T22:34:03.404Z,18.70
2022-08-25T22:36:34.222Z,12.40
2022-08-25T22:39:01.665Z,15.13
2022-08-25T22:41:29.934Z,13.50
2022-08-25T22:43:56.802Z,17.88
2022-08-25T22:46:27.942Z,18.85
2022-08-25T22:48:55.627Z,16.02
2022-08-25T22:51:25.539Z,17.02
2022-08-25T22:53:52.217Z,14.52
2022-08-25T22:56:29.738Z,16.95
2022-08-25T22:59:05.766Z,14.07
2022-08-25T23:01:33.491Z,13.63
2022-08-25T23:04:04.191Z,16.58
2022-08-25T23:06:34.470Z,16.38
2022-08-25T23:09:01.588Z,15.52
2022-08-25T23:11:28.871Z,14.90
2022-08-25T23:13:57.542Z,15.82
2022-08-25T23:16:24.457Z,12.27
2022-08-25T23:18:51.184Z,15.35
2022-08-25T23:21:38.162Z,18.10
2022-08-25T23:24:10.747Z,15.60
2022-08-25T23:26:42.446Z,14.13
2022-08-25T23:29:18.073Z,18.15
2022-08-25T23:31:47.536Z,15.23
2022-08-25T23:34:16.601Z,14.98
2022-08-25T23:36:44.735Z,24.88
2022-08-25T23:39:11.466Z,19.17
2022-08-25T23:41:38.821Z,15.38
2022-08-25T23:44:06.750Z,16.65
2022-08-25T23:46:36.118Z,16.67
2022-08-25T23:49:04.917Z,16.02
2022-08-25T23:51:34.332Z,14.15
2022-08-25T23:54:05.793Z,16.50
2022-08-25T23:56:34.412Z,17.63
2022-08-25T23:59:05.126Z,17.30
